Terminal Aerodrome Forecast
Issued by NWS Buffalo, NY

Home | Current Version | Previous Version | Text Only | Print | Product List | Glossary On
Versions: 1 2 3 4 5 6 7 8 9 10 11 12 13 14 15 16 17 18 19 20 21 22 23 24
879
FTUS41 KBUF 192334
TAFROC
TAF
KROC 192334Z 2000/2024 20010KT 6SM -RA OVC020 WS020/23040KT
     FM200500 20011KT 6SM -RA OVC035 WS020/24040KT
     FM201200 21011KT 6SM -RA OVC025 WS020/24040KT
     FM201500 21011KT P6SM BKN020 WS020/24040KT
     FM201600 22014G20KT P6SM BKN030
     FM201900 22018G32KT P6SM SCT035=

USA.gov is the U.S. government's official web portal to all federal, state and local government web resources and services.